createdAt,value
2018-08-14T00:00:12.812Z,1002.73
2018-08-14T00:00:38.974Z,1002.75
2018-08-14T00:01:05.102Z,1002.73
2018-08-14T00:01:31.286Z,1002.72
2018-08-14T00:01:57.445Z,1002.65
2018-08-14T00:02:23.575Z,1002.69
2018-08-14T00:02:49.717Z,1002.65
2018-08-14T00:03:15.847Z,1002.66
2018-08-14T00:03:41.990Z,1002.66
2018-08-14T00:04:08.125Z,1002.69
2018-08-14T00:04:34.288Z,1002.67
2018-08-14T00:05:00.419Z,1002.67
2018-08-14T00:05:26.558Z,1002.61
2018-08-14T00:05:52.688Z,1002.64
2018-08-14T00:06:18.826Z,1002.65
2018-08-14T00:06:44.957Z,1002.64
2018-08-14T00:07:11.095Z,1002.63
2018-08-14T00:07:37.276Z,1002.64
2018-08-14T00:08:03.401Z,1002.66
2018-08-14T00:08:29.533Z,1002.63
2018-08-14T00:08:55.673Z,1002.66
2018-08-14T00:09:21.802Z,1002.69
2018-08-14T00:09:47.935Z,1002.66
2018-08-14T00:10:14.077Z,1002.67
2018-08-14T00:10:40.239Z,1002.7
2018-08-14T00:11:06.378Z,1002.71
2018-08-14T00:11:32.515Z,1002.72
2018-08-14T00:11:58.704Z,1002.69
2018-08-14T00:12:24.853Z,1002.72
2018-08-14T00:12:50.993Z,1002.74
2018-08-14T00:13:17.130Z,1002.74
2018-08-14T00:13:43.272Z,1002.76
2018-08-14T00:14:15.674Z,1002.73
2018-08-14T00:14:41.813Z,1002.74
2018-08-14T00:15:07.940Z,1002.74
2018-08-14T00:15:34.101Z,1002.75
2018-08-14T00:16:00.225Z,1002.73
2018-08-14T00:16:26.359Z,1002.76
2018-08-14T00:16:52.517Z,1002.74
2018-08-14T00:17:18.653Z,1002.78
2018-08-14T00:17:44.817Z,1002.76
2018-08-14T00:18:10.960Z,1002.76
2018-08-14T00:18:37.120Z,1002.77
2018-08-14T00:19:03.284Z,1002.78
2018-08-14T00:19:29.421Z,1002.76
2018-08-14T00:19:55.587Z,1002.76
2018-08-14T00:20:21.693Z,1002.76
2018-08-14T00:20:47.834Z,1002.75
2018-08-14T00:21:13.964Z,1002.76
2018-08-14T00:21:40.114Z,1002.75
2018-08-14T00:22:06.265Z,1002.75
2018-08-14T00:22:32.398Z,1002.77
2018-08-14T00:22:58.560Z,1002.71
2018-08-14T00:23:24.725Z,1002.76
2018-08-14T00:23:50.866Z,1002.79
2018-08-14T00:24:17.015Z,1002.79
2018-08-14T00:24:43.152Z,1002.81
2018-08-14T00:25:09.280Z,1002.78
2018-08-14T00:25:35.422Z,1002.81
2018-08-14T00:26:01.555Z,1002.8
2018-08-14T00:26:27.687Z,1002.78
2018-08-14T00:26:53.824Z,1002.81
2018-08-14T00:27:19.985Z,1002.8
2018-08-14T00:27:46.113Z,1002.79
2018-08-14T00:28:12.270Z,1002.78
2018-08-14T00:28:38.405Z,1002.79
2018-08-14T00:29:04.541Z,1002.82
2018-08-14T00:29:30.678Z,1002.81
2018-08-14T00:29:56.803Z,1002.8
2018-08-14T00:30:22.942Z,1002.83
2018-08-14T00:30:49.075Z,1002.88
2018-08-14T00:31:15.227Z,1002.82
2018-08-14T00:31:41.362Z,1002.83
2018-08-14T00:32:07.503Z,1002.83
2018-08-14T00:32:33.642Z,1002.82
2018-08-14T00:32:59.777Z,1002.82
2018-08-14T00:33:25.934Z,1002.83
2018-08-14T00:33:52.076Z,1002.79
2018-08-14T00:34:18.200Z,1002.82
2018-08-14T00:34:44.339Z,1002.81
2018-08-14T00:35:10.479Z,1002.82
2018-08-14T00:35:36.640Z,1002.81
2018-08-14T00:36:02.794Z,1002.85
2018-08-14T00:36:28.936Z,1002.8
2018-08-14T00:36:55.070Z,1002.79
2018-08-14T00:37:21.213Z,1002.79
2018-08-14T00:37:47.356Z,1002.79
2018-08-14T00:38:13.512Z,1002.82
2018-08-14T00:38:39.654Z,1002.79
2018-08-14T00:39:05.790Z,1002.76
2018-08-14T00:39:31.951Z,1002.77
2018-08-14T00:39:58.108Z,1002.8
2018-08-14T00:40:24.247Z,1002.81
2018-08-14T00:40:50.379Z,1002.78
2018-08-14T00:41:16.518Z,1002.77
2018-08-14T00:41:42.648Z,1002.81
2018-08-14T00:42:08.812Z,1002.79
2018-08-14T00:42:34.949Z,1002.81
2018-08-14T00:43:01.084Z,1002.81
2018-08-14T00:43:27.218Z,1002.81
2018-08-14T00:43:53.358Z,1002.77
2018-08-14T00:44:19.489Z,1002.75
2018-08-14T00:44:45.630Z,1002.79
2018-08-14T00:45:11.784Z,1002.8
2018-08-14T00:45:37.918Z,1002.8
2018-08-14T00:46:04.057Z,1002.81
2018-08-14T00:46:30.190Z,1002.77
2018-08-14T00:46:56.327Z,1002.84
2018-08-14T00:47:22.491Z,1002.83
2018-08-14T00:47:48.620Z,1002.83
2018-08-14T00:48:14.765Z,1002.84
2018-08-14T00:48:40.895Z,1002.83
2018-08-14T00:49:07.040Z,1002.8
2018-08-14T00:49:33.168Z,1002.8
2018-08-14T00:49:59.309Z,1002.84
2018-08-14T00:50:25.443Z,1002.85
2018-08-14T00:50:51.623Z,1002.77
2018-08-14T00:51:17.762Z,1002.84
2018-08-14T00:51:43.913Z,1002.81
2018-08-14T00:52:10.048Z,1002.84
2018-08-14T00:52:36.190Z,1002.85
2018-08-14T00:53:02.323Z,1002.8
2018-08-14T00:53:28.453Z,1002.85
2018-08-14T00:53:54.591Z,1002.83
2018-08-14T00:54:20.723Z,1002.85
2018-08-14T00:54:46.857Z,1002.83
2018-08-14T00:55:12.995Z,1002.84
2018-08-14T00:55:39.155Z,1002.85
2018-08-14T00:56:05.352Z,1002.81
2018-08-14T00:56:31.460Z,1002.82
2018-08-14T00:56:57.589Z,1002.87
2018-08-14T00:57:23.735Z,1002.82
2018-08-14T00:57:49.868Z,1002.85
2018-08-14T00:58:16.009Z,1002.76
2018-08-14T00:58:42.182Z,1002.83
2018-08-14T00:59:08.363Z,1002.81
2018-08-14T00:59:34.504Z,1002.77
2018-08-14T01:00:00.639Z,1002.79
2018-08-14T01:00:26.776Z,1002.81
2018-08-14T01:00:52.937Z,1002.79
2018-08-14T01:01:19.070Z,1002.83
2018-08-14T01:01:45.221Z,1002.73
2018-08-14T01:02:11.354Z,1002.75
2018-08-14T01:02:37.491Z,1002.75
2018-08-14T01:03:03.654Z,1002.8
2018-08-14T01:03:29.795Z,1002.78
2018-08-14T01:03:55.924Z,1002.8
2018-08-14T01:04:22.063Z,1002.8
2018-08-14T01:04:48.202Z,1002.77
2018-08-14T01:05:14.339Z,1002.78
2018-08-14T01:05:40.492Z,1002.77
2018-08-14T01:06:06.629Z,1002.79
2018-08-14T01:06:32.780Z,1002.75
2018-08-14T01:06:58.922Z,1002.76
2018-08-14T01:07:25.061Z,1002.8
2018-08-14T01:07:51.210Z,1002.76
2018-08-14T01:08:17.353Z,1002.79
2018-08-14T01:08:43.508Z,1002.77
2018-08-14T01:09:09.653Z,1002.76
2018-08-14T01:09:35.784Z,1002.79
2018-08-14T01:10:01.922Z,1002.78
2018-08-14T01:10:28.060Z,1002.8
2018-08-14T01:10:54.193Z,1002.82
2018-08-14T01:11:20.358Z,1002.77
2018-08-14T01:11:46.497Z,1002.8
2018-08-14T01:12:12.629Z,1002.8
2018-08-14T01:12:38.762Z,1002.78
2018-08-14T01:13:04.907Z,1002.77
2018-08-14T01:13:31.042Z,1002.76
2018-08-14T01:13:57.178Z,1002.77
2018-08-14T01:14:23.316Z,1002.84
2018-08-14T01:14:49.453Z,1002.78
2018-08-14T01:15:15.589Z,1002.8
2018-08-14T01:15:41.731Z,1002.75
2018-08-14T01:16:07.853Z,1002.82
2018-08-14T01:16:33.996Z,1002.84
2018-08-14T01:17:00.130Z,1002.76
2018-08-14T01:17:26.292Z,1002.78
2018-08-14T01:17:52.420Z,1002.77
2018-08-14T01:18:18.579Z,1002.79
2018-08-14T01:18:44.721Z,1002.78
2018-08-14T01:19:10.863Z,1002.77
2018-08-14T01:19:36.986Z,1002.77
2018-08-14T01:20:03.120Z,1002.73
2018-08-14T01:20:29.279Z,1002.73
2018-08-14T01:20:55.411Z,1002.76
2018-08-14T01:21:21.549Z,1002.75
2018-08-14T01:21:47.681Z,1002.76
2018-08-14T01:22:13.816Z,1002.74
2018-08-14T01:22:39.949Z,1002.71
2018-08-14T01:23:06.088Z,1002.75
2018-08-14T01:23:32.225Z,1002.68
2018-08-14T01:23:58.356Z,1002.74
2018-08-14T01:24:24.521Z,1002.71
2018-08-14T01:24:50.656Z,1002.72
2018-08-14T01:25:16.788Z,1002.77
2018-08-14T01:25:42.915Z,1002.72
2018-08-14T01:26:09.054Z,1002.72
2018-08-14T01:26:35.211Z,1002.73
2018-08-14T01:27:01.356Z,1002.74
2018-08-14T01:27:27.486Z,1002.7
2018-08-14T01:27:53.648Z,1002.74
2018-08-14T01:28:19.812Z,1002.72
2018-08-14T01:28:45.945Z,1002.71
2018-08-14T01:29:12.103Z,1002.69
2018-08-14T01:29:38.282Z,1002.71
2018-08-14T01:30:04.376Z,1002.76
2018-08-14T01:30:30.509Z,1002.74
2018-08-14T01:30:56.642Z,1002.75
2018-08-14T01:31:22.875Z,1002.76
2018-08-14T01:31:48.987Z,1002.72
2018-08-14T01:32:15.119Z,1002.7
2018-08-14T01:32:41.255Z,1002.69
2018-08-14T01:33:07.415Z,1002.73
2018-08-14T01:33:33.548Z,1002.72
2018-08-14T01:33:59.688Z,1002.76
2018-08-14T01:34:25.824Z,1002.73
2018-08-14T01:34:51.984Z,1002.81
2018-08-14T01:35:18.119Z,1002.77
2018-08-14T01:35:44.254Z,1002.8
2018-08-14T01:36:10.411Z,1002.78
2018-08-14T01:36:36.556Z,1002.72
2018-08-14T01:37:02.684Z,1002.77
2018-08-14T01:37:28.823Z,1002.76
2018-08-14T01:37:54.960Z,1002.71
2018-08-14T01:38:21.103Z,1002.73
2018-08-14T01:38:47.236Z,1002.72
2018-08-14T01:39:13.381Z,1002.69
2018-08-14T01:39:39.520Z,1002.71
2018-08-14T01:40:05.680Z,1002.72
2018-08-14T01:40:31.825Z,1002.71
2018-08-14T01:40:57.954Z,1002.73
2018-08-14T01:41:24.089Z,1002.7
2018-08-14T01:41:50.223Z,1002.72
2018-08-14T01:42:16.366Z,1002.7
2018-08-14T01:42:42.496Z,1002.68
2018-08-14T01:43:08.633Z,1002.69
2018-08-14T01:43:34.770Z,1002.68
2018-08-14T01:44:00.929Z,1002.67
2018-08-14T01:44:27.066Z,1002.7
2018-08-14T01:44:53.211Z,1002.69
2018-08-14T01:45:19.339Z,1002.68
2018-08-14T01:45:45.465Z,1002.69
2018-08-14T01:46:11.602Z,1002.69
2018-08-14T01:46:37.758Z,1002.72
2018-08-14T01:47:03.888Z,1002.74
2018-08-14T01:47:30.134Z,1002.68
2018-08-14T01:47:56.176Z,1002.67
2018-08-14T01:48:22.385Z,1002.65
2018-08-14T01:48:48.472Z,1002.67
2018-08-14T01:49:14.617Z,1002.65
2018-08-14T01:49:40.770Z,1002.65
2018-08-14T01:50:06.902Z,1002.64
2018-08-14T01:50:33.034Z,1002.66
2018-08-14T01:50:59.166Z,1002.66
2018-08-14T01:51:25.305Z,1002.65
2018-08-14T01:51:51.438Z,1002.61
2018-08-14T01:52:17.573Z,1002.68
2018-08-14T01:52:43.716Z,1002.66
2018-08-14T01:53:09.846Z,1002.7
2018-08-14T01:53:35.977Z,1002.68
2018-08-14T01:54:02.114Z,1002.67
2018-08-14T01:54:28.272Z,1002.67
2018-08-14T01:54:54.406Z,1002.7
2018-08-14T01:55:20.569Z,1002.7
2018-08-14T01:55:46.708Z,1002.73
2018-08-14T01:56:12.858Z,1002.71
2018-08-14T01:56:38.999Z,1002.71
2018-08-14T01:57:05.128Z,1002.71
2018-08-14T01:57:31.268Z,1002.69
2018-08-14T01:57:57.402Z,1002.72
2018-08-14T01:58:23.536Z,1002.67
2018-08-14T01:58:49.669Z,1002.71
2018-08-14T01:59:15.834Z,1002.71
2018-08-14T01:59:41.966Z,1002.7
2018-08-14T02:00:08.135Z,1002.72
2018-08-14T02:00:34.262Z,1002.65
2018-08-14T02:01:00.424Z,1002.75
2018-08-14T02:01:26.556Z,1002.75
2018-08-14T02:01:52.694Z,1002.7
2018-08-14T02:02:18.822Z,1002.72
2018-08-14T02:02:44.964Z,1002.76
2018-08-14T02:03:11.116Z,1002.79
2018-08-14T02:03:37.255Z,1002.72
2018-08-14T02:04:03.417Z,1002.75
2018-08-14T02:04:29.550Z,1002.68
2018-08-14T02:04:55.681Z,1002.76
2018-08-14T02:05:21.817Z,1002.71
2018-08-14T02:05:47.955Z,1002.78
2018-08-14T02:06:14.088Z,1002.72
2018-08-14T02:06:40.225Z,1002.73
2018-08-14T02:07:06.359Z,1002.73
2018-08-14T02:07:32.531Z,1002.74
2018-08-14T02:07:58.664Z,1002.78
2018-08-14T02:08:24.814Z,1002.74
2018-08-14T02:08:50.950Z,1002.74
2018-08-14T02:09:17.096Z,1002.76
2018-08-14T02:09:43.230Z,1002.72
2018-08-14T02:10:09.358Z,1002.77
2018-08-14T02:10:35.496Z,1002.75
2018-08-14T02:11:01.633Z,1002.76
2018-08-14T02:11:27.768Z,1002.74
2018-08-14T02:11:53.923Z,1002.77
2018-08-14T02:12:20.056Z,1002.81
2018-08-14T02:12:46.190Z,1002.72
2018-08-14T02:13:12.327Z,1002.74
2018-08-14T02:13:38.466Z,1002.74
2018-08-14T02:14:04.597Z,1002.77
2018-08-14T02:14:30.733Z,1002.8
2018-08-14T02:14:56.873Z,1002.74
2018-08-14T02:15:23.001Z,1002.77
2018-08-14T02:15:49.170Z,1002.8
2018-08-14T02:16:15.307Z,1002.76
2018-08-14T02:16:41.441Z,1002.81
2018-08-14T02:17:07.577Z,1002.77
2018-08-14T02:17:33.715Z,1002.85
2018-08-14T02:17:59.840Z,1002.77
2018-08-14T02:18:25.981Z,1002.79
2018-08-14T02:18:52.121Z,1002.81
2018-08-14T02:19:18.274Z,1002.71
2018-08-14T02:19:44.431Z,1002.8
2018-08-14T02:20:10.608Z,1002.74
2018-08-14T02:20:36.762Z,1002.77
2018-08-14T02:21:02.900Z,1002.78
2018-08-14T02:21:29.033Z,1002.74
2018-08-14T02:21:55.176Z,1002.76
2018-08-14T02:22:21.307Z,1002.78
2018-08-14T02:22:47.444Z,1002.76
2018-08-14T02:23:13.606Z,1002.75
2018-08-14T02:23:39.746Z,1002.77
2018-08-14T02:24:05.880Z,1002.75
2018-08-14T02:24:32.017Z,1002.74
2018-08-14T02:24:58.161Z,1002.75
2018-08-14T02:25:24.339Z,1002.79
2018-08-14T02:25:50.499Z,1002.81
2018-08-14T02:26:16.630Z,1002.78
2018-08-14T02:26:42.792Z,1002.77
2018-08-14T02:27:08.928Z,1002.83
2018-08-14T02:27:35.068Z,1002.75
2018-08-14T02:28:01.195Z,1002.78
2018-08-14T02:28:27.331Z,1002.75
2018-08-14T02:28:53.475Z,1002.76
2018-08-14T02:29:19.607Z,1002.86
2018-08-14T02:29:45.771Z,1002.82
2018-08-14T02:30:11.927Z,1002.77
2018-08-14T02:30:38.091Z,1002.81
2018-08-14T02:31:04.241Z,1002.82
2018-08-14T02:31:30.401Z,1002.83
2018-08-14T02:31:56.563Z,1002.83
2018-08-14T02:32:22.726Z,1002.82
2018-08-14T02:32:48.903Z,1002.8
2018-08-14T02:33:15.091Z,1002.77
2018-08-14T02:33:41.243Z,1002.78
2018-08-14T02:34:07.389Z,1002.81
2018-08-14T02:34:33.525Z,1002.75
2018-08-14T02:34:59.737Z,1002.78
2018-08-14T02:35:25.891Z,1002.77
2018-08-14T02:35:52.038Z,1002.78
2018-08-14T02:36:18.193Z,1002.77
2018-08-14T02:36:44.377Z,1002.79
2018-08-14T02:37:10.531Z,1002.85
2018-08-14T02:37:36.700Z,1002.77
2018-08-14T02:38:02.857Z,1002.78
2018-08-14T02:38:28.987Z,1002.79
2018-08-14T02:38:55.153Z,1002.75
2018-08-14T02:39:21.310Z,1002.82
2018-08-14T02:39:47.439Z,1002.73
2018-08-14T02:40:13.595Z,1002.81
2018-08-14T02:40:39.728Z,1002.77
2018-08-14T02:41:05.860Z,1002.8
2018-08-14T02:41:32.047Z,1002.78
2018-08-14T02:41:58.209Z,1002.79
2018-08-14T02:42:24.359Z,1002.76
2018-08-14T02:42:50.493Z,1002.76
2018-08-14T02:43:16.673Z,1002.76
2018-08-14T02:43:42.790Z,1002.77
2018-08-14T02:44:08.973Z,1002.78
2018-08-14T02:44:35.101Z,1002.77
2018-08-14T02:45:01.234Z,1002.75
2018-08-14T02:45:27.374Z,1002.79
2018-08-14T02:45:53.513Z,1002.78
2018-08-14T02:46:19.648Z,1002.75
2018-08-14T02:46:45.804Z,1002.79
2018-08-14T02:47:11.949Z,1002.75
2018-08-14T02:47:38.078Z,1002.74
2018-08-14T02:48:04.220Z,1002.73
2018-08-14T02:48:30.385Z,1002.77
2018-08-14T02:48:56.562Z,1002.81
2018-08-14T02:49:22.718Z,1002.78
2018-08-14T02:49:48.887Z,1002.74
2018-08-14T02:50:15.047Z,1002.77
2018-08-14T02:50:41.184Z,1002.76
2018-08-14T02:51:07.324Z,1002.74
2018-08-14T02:51:33.454Z,1002.76
2018-08-14T02:51:59.640Z,1002.79
2018-08-14T02:52:25.755Z,1002.75
2018-08-14T02:52:51.918Z,1002.74
2018-08-14T02:53:18.129Z,1002.73
2018-08-14T02:53:44.282Z,1002.72
2018-08-14T02:54:10.444Z,1002.79
2018-08-14T02:54:36.587Z,1002.75
2018-08-14T02:55:02.734Z,1002.76
2018-08-14T02:55:28.870Z,1002.73
2018-08-14T02:55:55.034Z,1002.74
2018-08-14T02:56:21.211Z,1002.75
2018-08-14T02:56:47.346Z,1002.77
2018-08-14T02:57:13.511Z,1002.74
2018-08-14T02:57:39.665Z,1002.77
2018-08-14T02:58:05.839Z,1002.77
2018-08-14T02:58:31.998Z,1002.76
2018-08-14T02:58:58.159Z,1002.76
2018-08-14T02:59:24.308Z,1002.85
2018-08-14T02:59:50.435Z,1002.74
2018-08-14T03:00:16.628Z,1002.75
2018-08-14T03:00:42.784Z,1002.77
2018-08-14T03:01:08.916Z,1002.77
2018-08-14T03:01:35.098Z,1002.81
2018-08-14T03:02:01.257Z,1002.74
2018-08-14T03:02:27.435Z,1002.79
2018-08-14T03:02:53.588Z,1002.81
2018-08-14T03:03:19.767Z,1002.77
2018-08-14T03:03:45.950Z,1002.79
2018-08-14T03:04:12.094Z,1002.74
2018-08-14T03:04:38.238Z,1002.81
2018-08-14T03:05:04.380Z,1002.79
2018-08-14T03:05:30.542Z,1002.76
2018-08-14T03:05:56.694Z,1002.78
2018-08-14T03:06:22.905Z,1002.74
2018-08-14T03:06:49.034Z,1002.77
2018-08-14T03:07:15.221Z,1002.78
2018-08-14T03:07:41.366Z,1002.79
2018-08-14T03:08:07.536Z,1002.79
2018-08-14T03:08:33.693Z,1002.75
2018-08-14T03:08:59.832Z,1002.8
2018-08-14T03:09:25.991Z,1002.81
2018-08-14T03:09:52.150Z,1002.78
2018-08-14T03:10:18.321Z,1002.76
2018-08-14T03:10:44.469Z,1002.8
2018-08-14T03:11:10.667Z,1002.8
2018-08-14T03:11:36.796Z,1002.79
2018-08-14T03:12:02.935Z,1002.78
2018-08-14T03:12:29.072Z,1002.83
2018-08-14T03:12:55.229Z,1002.76
2018-08-14T03:13:21.391Z,1002.79
2018-08-14T03:13:47.528Z,1002.82
2018-08-14T03:14:13.657Z,1002.77
2018-08-14T03:14:39.794Z,1002.81
2018-08-14T03:15:05.931Z,1002.74
2018-08-14T03:15:32.117Z,1002.77
2018-08-14T03:15:58.243Z,1002.79
2018-08-14T03:16:24.404Z,1002.82
2018-08-14T03:16:50.534Z,1002.81
2018-08-14T03:17:16.667Z,1002.8
2018-08-14T03:17:42.808Z,1002.78
2018-08-14T03:18:09.013Z,1002.77
2018-08-14T03:18:35.194Z,1002.77
2018-08-14T03:19:01.351Z,1002.79
2018-08-14T03:19:27.528Z,1002.8
2018-08-14T03:19:53.697Z,1002.83
2018-08-14T03:20:19.855Z,1002.82
2018-08-14T03:20:45.989Z,1002.81
2018-08-14T03:21:12.158Z,1002.83
2018-08-14T03:21:38.344Z,1002.81
2018-08-14T03:22:04.526Z,1002.78
2018-08-14T03:22:30.687Z,1002.79
2018-08-14T03:22:56.871Z,1002.79
2018-08-14T03:23:23.051Z,1002.83
2018-08-14T03:23:49.179Z,1002.78
2018-08-14T03:24:15.343Z,1002.81
2018-08-14T03:24:41.480Z,1002.81
2018-08-14T03:25:07.635Z,1002.81
2018-08-14T03:25:33.787Z,1002.78
2018-08-14T03:25:59.977Z,1002.78
2018-08-14T03:26:26.171Z,1002.79
2018-08-14T03:26:52.304Z,1002.79
2018-08-14T03:27:18.442Z,1002.75
2018-08-14T03:27:44.596Z,1002.74
2018-08-14T03:28:10.727Z,1002.75
2018-08-14T03:28:36.859Z,1002.78
2018-08-14T03:29:03.000Z,1002.78
2018-08-14T03:29:29.162Z,1002.75
2018-08-14T03:29:55.320Z,1002.73
2018-08-14T03:30:21.485Z,1002.78
2018-08-14T03:30:47.661Z,1002.77
2018-08-14T03:31:13.841Z,1002.78
2018-08-14T03:31:40.084Z,1002.76
2018-08-14T03:32:06.161Z,1002.78
2018-08-14T03:32:32.371Z,1002.79
2018-08-14T03:32:58.506Z,1002.83
2018-08-14T03:33:24.662Z,1002.8
2018-08-14T03:33:50.796Z,1002.8
2018-08-14T03:34:16.928Z,1002.85
2018-08-14T03:34:43.060Z,1002.8
2018-08-14T03:35:09.200Z,1002.81
2018-08-14T03:35:35.365Z,1002.85
2018-08-14T03:36:01.492Z,1002.82
2018-08-14T03:36:27.623Z,1002.84
2018-08-14T03:36:53.756Z,1002.81
2018-08-14T03:37:19.885Z,1002.82
2018-08-14T03:37:46.068Z,1002.81
2018-08-14T03:38:12.266Z,1002.81
2018-08-14T03:38:38.418Z,1002.83
2018-08-14T03:39:04.551Z,1002.8
2018-08-14T03:39:30.697Z,1002.83
2018-08-14T03:39:56.827Z,1002.82
2018-08-14T03:40:22.994Z,1002.85
2018-08-14T03:40:49.152Z,1002.78
2018-08-14T03:41:15.283Z,1002.83
2018-08-14T03:41:41.425Z,1002.82
2018-08-14T03:42:07.552Z,1002.81
2018-08-14T03:42:33.698Z,1002.8
2018-08-14T03:42:59.824Z,1002.79
2018-08-14T03:43:25.967Z,1002.82
2018-08-14T03:43:52.103Z,1002.78
2018-08-14T03:44:18.235Z,1002.79
2018-08-14T03:44:44.367Z,1002.8
2018-08-14T03:45:10.523Z,1002.82
2018-08-14T03:45:36.660Z,1002.83
2018-08-14T03:46:02.816Z,1002.81
2018-08-14T03:46:28.958Z,1002.79
2018-08-14T03:46:55.091Z,1002.84
2018-08-14T03:47:21.228Z,1002.82
2018-08-14T03:47:47.360Z,1002.82
2018-08-14T03:48:13.521Z,1002.84
2018-08-14T03:48:39.654Z,1002.84
2018-08-14T03:49:05.793Z,1002.84
2018-08-14T03:49:31.921Z,1002.82
2018-08-14T03:49:58.064Z,1002.84
2018-08-14T03:50:24.202Z,1002.84
2018-08-14T03:50:50.340Z,1002.88
2018-08-14T03:51:16.496Z,1002.84
2018-08-14T03:51:42.635Z,1002.83
2018-08-14T03:52:08.797Z,1002.84
2018-08-14T03:52:34.929Z,1002.86
2018-08-14T03:53:01.063Z,1002.86
2018-08-14T03:53:27.205Z,1002.84
2018-08-14T03:53:53.357Z,1002.83
2018-08-14T03:54:19.494Z,1002.82
2018-08-14T03:54:45.626Z,1002.78
2018-08-14T03:55:11.807Z,1002.83
2018-08-14T03:55:37.942Z,1002.79
2018-08-14T03:56:04.101Z,1002.78
2018-08-14T03:56:30.232Z,1002.78
2018-08-14T03:56:56.371Z,1002.81
2018-08-14T03:57:22.508Z,1002.82
2018-08-14T03:57:48.642Z,1002.87
2018-08-14T03:58:14.782Z,1002.82
2018-08-14T03:58:40.916Z,1002.83
2018-08-14T03:59:07.086Z,1002.82
2018-08-14T03:59:33.215Z,1002.89
2018-08-14T03:59:59.347Z,1002.85
2018-08-14T04:00:25.489Z,1002.86
2018-08-14T04:00:51.629Z,1002.86
2018-08-14T04:01:17.757Z,1002.86
2018-08-14T04:01:43.895Z,1002.88
2018-08-14T04:02:10.027Z,1002.82
2018-08-14T04:02:36.161Z,1002.83
2018-08-14T04:03:02.298Z,1002.83
2018-08-14T04:03:28.432Z,1002.86
2018-08-14T04:03:54.574Z,1002.88
2018-08-14T04:04:20.725Z,1002.85
2018-08-14T04:04:46.879Z,1002.9
2018-08-14T04:05:13.020Z,1002.87
2018-08-14T04:05:39.176Z,1002.9
2018-08-14T04:06:05.394Z,1002.93
2018-08-14T04:06:31.495Z,1002.93
2018-08-14T04:06:57.623Z,1002.89
2018-08-14T04:07:23.756Z,1002.88
2018-08-14T04:07:49.895Z,1002.88
2018-08-14T04:08:16.033Z,1002.91
2018-08-14T04:08:42.163Z,1002.86
2018-08-14T04:09:08.303Z,1002.91
2018-08-14T04:09:34.428Z,1002.88
2018-08-14T04:10:00.569Z,1002.91
2018-08-14T04:10:26.717Z,1002.9
2018-08-14T04:10:52.855Z,1002.88
2018-08-14T04:11:18.993Z,1002.92
2018-08-14T04:11:45.127Z,1002.91
2018-08-14T04:12:11.257Z,1002.89
2018-08-14T04:12:37.391Z,1002.92
2018-08-14T04:13:03.526Z,1002.95
2018-08-14T04:13:29.658Z,1002.91
2018-08-14T04:13:55.792Z,1002.93
2018-08-14T04:14:21.931Z,1002.9
2018-08-14T04:14:48.085Z,1002.93
2018-08-14T04:15:14.230Z,1002.95
2018-08-14T04:15:40.359Z,1002.97
2018-08-14T04:16:06.497Z,1002.97
2018-08-14T04:16:32.654Z,1002.95
2018-08-14T04:16:58.792Z,1002.96
2018-08-14T04:17:24.924Z,1002.96
2018-08-14T04:17:51.063Z,1002.98
2018-08-14T04:18:17.194Z,1002.93
2018-08-14T04:18:43.327Z,1002.97
2018-08-14T04:19:09.461Z,1002.98
2018-08-14T04:19:35.593Z,1002.96
2018-08-14T04:20:01.734Z,1002.96
2018-08-14T04:20:27.914Z,1002.99
2018-08-14T04:20:54.067Z,1002.95
2018-08-14T04:21:20.229Z,1002.96
2018-08-14T04:21:46.358Z,1003.02
2018-08-14T04:22:12.498Z,1003
2018-08-14T04:22:38.629Z,1002.94
2018-08-14T04:23:04.770Z,1002.99
2018-08-14T04:23:30.905Z,1002.99
2018-08-14T04:23:57.034Z,1003
2018-08-14T04:24:23.171Z,1003
2018-08-14T04:24:49.308Z,1002.96
2018-08-14T04:25:15.445Z,1002.94
2018-08-14T04:25:41.580Z,1002.98
2018-08-14T04:26:07.740Z,1003.03
2018-08-14T04:26:33.908Z,1002.96
2018-08-14T04:27:00.027Z,1002.93
2018-08-14T04:27:26.165Z,1003
2018-08-14T04:27:52.291Z,1002.96
2018-08-14T04:28:18.428Z,1003
2018-08-14T04:28:44.614Z,1002.96
2018-08-14T04:29:10.821Z,1002.94
2018-08-14T04:29:37.000Z,1002.99
2018-08-14T04:30:03.131Z,1002.99
2018-08-14T04:30:29.266Z,1003.02
2018-08-14T04:30:55.412Z,1002.99
2018-08-14T04:31:21.541Z,1002.97
2018-08-14T04:31:47.684Z,1003.03
2018-08-14T04:32:13.813Z,1002.98
2018-08-14T04:32:39.944Z,1002.96
2018-08-14T04:33:06.075Z,1002.98
2018-08-14T04:33:32.237Z,1002.96
2018-08-14T04:33:58.371Z,1002.95
2018-08-14T04:34:24.511Z,1002.94
2018-08-14T04:34:50.644Z,1002.97
2018-08-14T04:35:16.773Z,1002.98
2018-08-14T04:35:42.904Z,1002.99
2018-08-14T04:36:09.041Z,1002.96
2018-08-14T04:36:35.180Z,1002.98
2018-08-14T04:37:01.316Z,1002.9
2018-08-14T04:37:27.485Z,1003
2018-08-14T04:37:53.639Z,1002.92
2018-08-14T04:38:19.805Z,1002.96
2018-08-14T04:38:45.938Z,1002.98
2018-08-14T04:39:12.076Z,1002.95
2018-08-14T04:39:38.205Z,1003.01
2018-08-14T04:40:04.341Z,1003.05
2018-08-14T04:40:30.479Z,1002.98
2018-08-14T04:40:56.614Z,1002.99
2018-08-14T04:41:22.769Z,1003.02
2018-08-14T04:41:48.903Z,1003.02
2018-08-14T04:42:15.073Z,1003.04
2018-08-14T04:42:41.203Z,1003.06
2018-08-14T04:43:07.334Z,1003.01
2018-08-14T04:43:33.464Z,1003.1
2018-08-14T04:43:59.606Z,1003.1
2018-08-14T04:44:25.739Z,1003.05
2018-08-14T04:44:51.872Z,1003.11
2018-08-14T04:45:18.004Z,1003.08
2018-08-14T04:45:44.158Z,1003.12
2018-08-14T04:46:10.273Z,1003.11
2018-08-14T04:46:36.418Z,1003.08
2018-08-14T04:47:02.552Z,1003.12
2018-08-14T04:47:28.685Z,1003.1
2018-08-14T04:47:54.816Z,1003.11
2018-08-14T04:48:20.974Z,1003.16
2018-08-14T04:48:47.101Z,1003.09
2018-08-14T04:49:13.242Z,1003.12
2018-08-14T04:49:39.386Z,1003.15
2018-08-14T04:50:05.514Z,1003.13
2018-08-14T04:50:31.648Z,1003.17
2018-08-14T04:50:57.794Z,1003.16
2018-08-14T04:51:23.924Z,1003.14
2018-08-14T04:51:50.065Z,1003.18
2018-08-14T04:52:16.194Z,1003.18
2018-08-14T04:52:42.331Z,1003.17
2018-08-14T04:53:08.480Z,1003.2
2018-08-14T04:53:34.615Z,1003.21
2018-08-14T04:54:00.972Z,1003.19
2018-08-14T04:54:26.911Z,1003.21
2018-08-14T04:54:53.044Z,1003.2
2018-08-14T04:55:19.207Z,1003.22
2018-08-14T04:55:45.344Z,1003.21
2018-08-14T04:56:11.484Z,1003.21
2018-08-14T04:56:37.610Z,1003.25
2018-08-14T04:57:03.746Z,1003.26
2018-08-14T04:57:29.884Z,1003.26
2018-08-14T04:57:56.071Z,1003.27
2018-08-14T04:58:22.205Z,1003.27
2018-08-14T04:58:48.355Z,1003.27
2018-08-14T04:59:14.490Z,1003.25
2018-08-14T04:59:40.652Z,1003.18
2018-08-14T05:00:06.785Z,1003.25
2018-08-14T05:00:32.971Z,1003.23
2018-08-14T05:00:59.130Z,1003.27
2018-08-14T05:01:25.268Z,1003.29
2018-08-14T05:01:51.407Z,1003.23
2018-08-14T05:02:17.539Z,1003.28
2018-08-14T05:02:43.670Z,1003.25
2018-08-14T05:03:09.821Z,1003.27
2018-08-14T05:03:35.965Z,1003.25
2018-08-14T05:04:02.094Z,1003.27
2018-08-14T05:04:28.230Z,1003.28
2018-08-14T05:04:54.367Z,1003.26
2018-08-14T05:05:20.500Z,1003.23
2018-08-14T05:05:46.657Z,1003.27
2018-08-14T05:06:12.788Z,1003.28
2018-08-14T05:06:38.930Z,1003.29
2018-08-14T05:07:05.079Z,1003.27
2018-08-14T05:07:31.235Z,1003.26
2018-08-14T05:07:57.391Z,1003.28
2018-08-14T05:08:23.534Z,1003.27
2018-08-14T05:08:49.717Z,1003.29
2018-08-14T05:09:15.809Z,1003.25
2018-08-14T05:09:41.959Z,1003.32
2018-08-14T05:10:08.103Z,1003.3
2018-08-14T05:10:34.279Z,1003.34
2018-08-14T05:11:00.440Z,1003.35
2018-08-14T05:11:26.569Z,1003.35
2018-08-14T05:11:52.707Z,1003.35
2018-08-14T05:12:18.840Z,1003.36
2018-08-14T05:12:44.983Z,1003.35
2018-08-14T05:13:11.106Z,1003.37
2018-08-14T05:13:37.243Z,1003.36
2018-08-14T05:14:03.379Z,1003.41
2018-08-14T05:14:29.612Z,1003.4
2018-08-14T05:14:55.692Z,1003.35
2018-08-14T05:15:21.828Z,1003.4
2018-08-14T05:15:47.962Z,1003.41
2018-08-14T05:16:14.141Z,1003.4
2018-08-14T05:16:40.271Z,1003.39
2018-08-14T05:17:06.415Z,1003.36
2018-08-14T05:17:32.540Z,1003.36